sensor_id;sensor_type;location;lat;lon;timestamp;P1;durP1;ratioP1;P2;durP2;ratioP2
51660;SDS011;37741;49.748;8.490;2022-10-16T00:01:10;3.67;;;1.35;;
51660;SDS011;37741;49.748;8.490;2022-10-16T00:03:38;1.92;;;0.90;;
51660;SDS011;37741;49.748;8.490;2022-10-16T00:06:05;2.85;;;1.00;;
51660;SDS011;37741;49.748;8.490;2022-10-16T00:08:31;3.10;;;1.45;;
51660;SDS011;37741;49.748;8.490;2022-10-16T00:11:01;2.10;;;1.10;;
51660;SDS011;37741;49.748;8.490;2022-10-16T00:13:39;3.28;;;0.90;;
51660;SDS011;37741;49.748;8.490;2022-10-16T00:16:06;2.22;;;1.00;;
51660;SDS011;37741;49.748;8.490;2022-10-16T00:18:32;2.10;;;1.20;;
51660;SDS011;37741;49.748;8.490;2022-10-16T00:21:02;2.30;;;1.27;;
51660;SDS011;37741;49.748;8.490;2022-10-16T00:23:30;3.50;;;1.33;;
51660;SDS011;37741;49.748;8.490;2022-10-16T00:26:00;2.72;;;1.15;;
51660;SDS011;37741;49.748;8.490;2022-10-16T00:28:28;1.70;;;0.90;;
51660;SDS011;37741;49.748;8.490;2022-10-16T00:30:54;1.85;;;1.13;;
51660;SDS011;37741;49.748;8.490;2022-10-16T00:33:20;2.90;;;1.25;;
51660;SDS011;37741;49.748;8.490;2022-10-16T00:35:45;1.85;;;1.00;;
51660;SDS011;37741;49.748;8.490;2022-10-16T00:38:11;1.48;;;0.80;;
51660;SDS011;37741;49.748;8.490;2022-10-16T00:40:37;1.90;;;0.80;;
51660;SDS011;37741;49.748;8.490;2022-10-16T00:43:04;2.05;;;0.70;;
51660;SDS011;37741;49.748;8.490;2022-10-16T00:45:57;2.53;;;1.00;;
51660;SDS011;37741;49.748;8.490;2022-10-16T00:48:23;1.63;;;0.80;;
51660;SDS011;37741;49.748;8.490;2022-10-16T00:50:49;1.50;;;0.88;;
51660;SDS011;37741;49.748;8.490;2022-10-16T00:53:14;3.60;;;0.90;;
51660;SDS011;37741;49.748;8.490;2022-10-16T00:55:42;2.22;;;0.70;;
51660;SDS011;37741;49.748;8.490;2022-10-16T00:58:08;1.40;;;0.80;;
51660;SDS011;37741;49.748;8.490;2022-10-16T01:00:34;1.60;;;0.73;;
51660;SDS011;37741;49.748;8.490;2022-10-16T01:03:01;1.70;;;0.88;;
51660;SDS011;37741;49.748;8.490;2022-10-16T01:05:30;1.17;;;0.60;;
51660;SDS011;37741;49.748;8.490;2022-10-16T01:08:12;1.52;;;0.70;;
51660;SDS011;37741;49.748;8.490;2022-10-16T01:10:46;1.85;;;0.80;;
51660;SDS011;37741;49.748;8.490;2022-10-16T01:13:20;1.17;;;0.65;;
51660;SDS011;37741;49.748;8.490;2022-10-16T01:21:04;2.67;;;0.65;;
51660;SDS011;37741;49.748;8.490;2022-10-16T01:26:48;1.50;;;0.90;;
51660;SDS011;37741;49.748;8.490;2022-10-16T01:31:56;1.30;;;0.73;;
51660;SDS011;37741;49.748;8.490;2022-10-16T01:34:28;1.13;;;0.70;;
51660;SDS011;37741;49.748;8.490;2022-10-16T01:37:11;1.40;;;0.80;;
51660;SDS011;37741;49.748;8.490;2022-10-16T01:39:40;2.03;;;0.70;;
51660;SDS011;37741;49.748;8.490;2022-10-16T01:42:12;3.00;;;1.05;;
51660;SDS011;37741;49.748;8.490;2022-10-16T01:44:43;1.92;;;0.80;;
51660;SDS011;37741;49.748;8.490;2022-10-16T01:47:12;1.92;;;0.80;;
51660;SDS011;37741;49.748;8.490;2022-10-16T01:49:38;1.60;;;0.90;;
51660;SDS011;37741;49.748;8.490;2022-10-16T01:52:08;1.88;;;0.90;;
51660;SDS011;37741;49.748;8.490;2022-10-16T01:54:42;1.88;;;1.10;;
51660;SDS011;37741;49.748;8.490;2022-10-16T01:57:10;2.08;;;1.08;;
51660;SDS011;37741;49.748;8.490;2022-10-16T01:59:41;5.32;;;0.88;;
51660;SDS011;37741;49.748;8.490;2022-10-16T02:02:09;3.78;;;1.30;;
51660;SDS011;37741;49.748;8.490;2022-10-16T02:04:44;2.55;;;1.23;;
51660;SDS011;37741;49.748;8.490;2022-10-16T02:07:12;1.70;;;0.80;;
51660;SDS011;37741;49.748;8.490;2022-10-16T02:09:39;3.08;;;1.08;;
51660;SDS011;37741;49.748;8.490;2022-10-16T02:12:09;2.30;;;1.65;;
51660;SDS011;37741;49.748;8.490;2022-10-16T02:14:42;2.20;;;1.17;;
51660;SDS011;37741;49.748;8.490;2022-10-16T02:17:11;1.92;;;1.10;;
51660;SDS011;37741;49.748;8.490;2022-10-16T02:19:38;3.63;;;1.27;;
51660;SDS011;37741;49.748;8.490;2022-10-16T02:22:05;2.28;;;0.98;;
51660;SDS011;37741;49.748;8.490;2022-10-16T02:30:39;2.10;;;1.40;;
51660;SDS011;37741;49.748;8.490;2022-10-16T02:33:10;2.38;;;1.35;;
51660;SDS011;37741;49.748;8.490;2022-10-16T02:35:38;3.45;;;1.33;;
51660;SDS011;37741;49.748;8.490;2022-10-16T02:38:06;2.00;;;1.10;;
51660;SDS011;37741;49.748;8.490;2022-10-16T02:40:34;3.22;;;0.95;;
51660;SDS011;37741;49.748;8.490;2022-10-16T02:43:02;2.95;;;1.40;;
51660;SDS011;37741;49.748;8.490;2022-10-16T02:45:29;4.03;;;1.38;;
51660;SDS011;37741;49.748;8.490;2022-10-16T02:47:55;2.10;;;1.30;;
51660;SDS011;37741;49.748;8.490;2022-10-16T02:50:20;3.53;;;1.52;;
51660;SDS011;37741;49.748;8.490;2022-10-16T02:52:47;2.95;;;1.38;;
51660;SDS011;37741;49.748;8.490;2022-10-16T02:55:12;3.03;;;1.52;;
51660;SDS011;37741;49.748;8.490;2022-10-16T02:57:38;4.07;;;1.58;;
51660;SDS011;37741;49.748;8.490;2022-10-16T03:00:05;2.70;;;1.48;;
51660;SDS011;37741;49.748;8.490;2022-10-16T03:02:32;6.47;;;1.80;;
51660;SDS011;37741;49.748;8.490;2022-10-16T03:04:57;2.80;;;1.38;;
51660;SDS011;37741;49.748;8.490;2022-10-16T03:07:23;3.13;;;1.90;;
51660;SDS011;37741;49.748;8.490;2022-10-16T03:09:49;4.55;;;2.10;;
51660;SDS011;37741;49.748;8.490;2022-10-16T03:12:14;7.22;;;3.03;;
51660;SDS011;37741;49.748;8.490;2022-10-16T03:14:40;4.80;;;2.85;;
51660;SDS011;37741;49.748;8.490;2022-10-16T03:17:05;3.33;;;1.88;;
51660;SDS011;37741;49.748;8.490;2022-10-16T03:19:31;2.67;;;1.23;;
51660;SDS011;37741;49.748;8.490;2022-10-16T03:21:57;3.33;;;1.60;;
51660;SDS011;37741;49.748;8.490;2022-10-16T03:24:22;4.03;;;1.63;;
51660;SDS011;37741;49.748;8.490;2022-10-16T03:26:48;2.42;;;1.38;;
51660;SDS011;37741;49.748;8.490;2022-10-16T03:29:13;4.68;;;1.27;;
51660;SDS011;37741;49.748;8.490;2022-10-16T03:31:39;4.32;;;1.60;;
51660;SDS011;37741;49.748;8.490;2022-10-16T03:34:05;3.33;;;1.40;;
51660;SDS011;37741;49.748;8.490;2022-10-16T03:36:30;1.55;;;1.10;;
51660;SDS011;37741;49.748;8.490;2022-10-16T03:38:56;2.65;;;1.35;;
51660;SDS011;37741;49.748;8.490;2022-10-16T03:41:22;3.20;;;1.75;;
51660;SDS011;37741;49.748;8.490;2022-10-16T03:43:47;3.08;;;1.58;;
51660;SDS011;37741;49.748;8.490;2022-10-16T03:46:13;4.40;;;2.40;;
51660;SDS011;37741;49.748;8.490;2022-10-16T03:48:39;3.85;;;1.30;;
51660;SDS011;37741;49.748;8.490;2022-10-16T03:51:05;3.10;;;1.33;;
51660;SDS011;37741;49.748;8.490;2022-10-16T03:53:31;6.25;;;1.90;;
51660;SDS011;37741;49.748;8.490;2022-10-16T03:55:56;3.45;;;1.88;;
51660;SDS011;37741;49.748;8.490;2022-10-16T03:58:22;2.60;;;1.80;;
51660;SDS011;37741;49.748;8.490;2022-10-16T04:00:48;2.95;;;2.05;;
51660;SDS011;37741;49.748;8.490;2022-10-16T04:03:13;2.50;;;1.40;;
51660;SDS011;37741;49.748;8.490;2022-10-16T04:05:39;2.42;;;1.30;;
51660;SDS011;37741;49.748;8.490;2022-10-16T04:08:05;3.90;;;1.27;;
51660;SDS011;37741;49.748;8.490;2022-10-16T04:10:31;2.03;;;1.10;;
51660;SDS011;37741;49.748;8.490;2022-10-16T04:12:57;2.42;;;1.25;;
51660;SDS011;37741;49.748;8.490;2022-10-16T04:15:23;2.50;;;1.38;;
51660;SDS011;37741;49.748;8.490;2022-10-16T04:17:49;2.78;;;1.50;;
51660;SDS011;37741;49.748;8.490;2022-10-16T04:20:14;3.15;;;1.60;;
51660;SDS011;37741;49.748;8.490;2022-10-16T04:22:40;4.07;;;1.70;;
51660;SDS011;37741;49.748;8.490;2022-10-16T04:25:06;2.40;;;1.70;;
51660;SDS011;37741;49.748;8.490;2022-10-16T04:27:32;2.83;;;1.58;;
51660;SDS011;37741;49.748;8.490;2022-10-16T04:29:58;2.95;;;1.95;;
51660;SDS011;37741;49.748;8.490;2022-10-16T04:32:24;5.45;;;2.55;;
51660;SDS011;37741;49.748;8.490;2022-10-16T04:34:51;5.28;;;3.03;;
51660;SDS011;37741;49.748;8.490;2022-10-16T04:37:16;6.00;;;2.70;;
51660;SDS011;37741;49.748;8.490;2022-10-16T04:39:42;3.50;;;1.65;;
51660;SDS011;37741;49.748;8.490;2022-10-16T04:42:07;2.90;;;1.80;;
51660;SDS011;37741;49.748;8.490;2022-10-16T04:44:33;3.90;;;2.42;;
51660;SDS011;37741;49.748;8.490;2022-10-16T04:46:58;2.38;;;1.50;;
51660;SDS011;37741;49.748;8.490;2022-10-16T04:49:24;2.03;;;1.25;;
51660;SDS011;37741;49.748;8.490;2022-10-16T04:51:50;2.30;;;1.23;;
51660;SDS011;37741;49.748;8.490;2022-10-16T04:54:15;3.63;;;1.75;;
51660;SDS011;37741;49.748;8.490;2022-10-16T04:56:41;2.78;;;1.80;;
51660;SDS011;37741;49.748;8.490;2022-10-16T04:59:13;2.50;;;1.27;;
51660;SDS011;37741;49.748;8.490;2022-10-16T05:01:39;2.08;;;1.10;;
51660;SDS011;37741;49.748;8.490;2022-10-16T05:04:05;2.55;;;1.20;;
51660;SDS011;37741;49.748;8.490;2022-10-16T05:06:31;3.25;;;1.70;;
51660;SDS011;37741;49.748;8.490;2022-10-16T05:08:56;2.50;;;1.65;;
51660;SDS011;37741;49.748;8.490;2022-10-16T05:11:22;2.05;;;1.40;;
51660;SDS011;37741;49.748;8.490;2022-10-16T05:13:47;3.53;;;1.67;;
51660;SDS011;37741;49.748;8.490;2022-10-16T05:16:13;4.93;;;1.73;;
51660;SDS011;37741;49.748;8.490;2022-10-16T05:18:39;2.33;;;1.48;;
51660;SDS011;37741;49.748;8.490;2022-10-16T05:21:05;2.45;;;1.48;;
51660;SDS011;37741;49.748;8.490;2022-10-16T05:23:31;2.03;;;1.40;;
51660;SDS011;37741;49.748;8.490;2022-10-16T05:25:57;3.05;;;1.58;;
51660;SDS011;37741;49.748;8.490;2022-10-16T05:28:24;1.95;;;1.30;;
51660;SDS011;37741;49.748;8.490;2022-10-16T05:30:51;2.72;;;1.45;;
51660;SDS011;37741;49.748;8.490;2022-10-16T05:33:19;2.80;;;1.20;;
51660;SDS011;37741;49.748;8.490;2022-10-16T05:35:46;2.13;;;1.30;;
51660;SDS011;37741;49.748;8.490;2022-10-16T05:38:11;2.03;;;1.13;;
51660;SDS011;37741;49.748;8.490;2022-10-16T05:40:37;2.72;;;1.60;;
51660;SDS011;37741;49.748;8.490;2022-10-16T05:43:03;3.30;;;1.17;;
51660;SDS011;37741;49.748;8.490;2022-10-16T05:45:28;2.53;;;1.30;;
51660;SDS011;37741;49.748;8.490;2022-10-16T05:47:54;3.40;;;1.33;;
51660;SDS011;37741;49.748;8.490;2022-10-16T05:50:20;2.10;;;1.17;;
51660;SDS011;37741;49.748;8.490;2022-10-16T05:52:45;3.85;;;1.30;;
51660;SDS011;37741;49.748;8.490;2022-10-16T05:55:11;2.60;;;1.80;;
51660;SDS011;37741;49.748;8.490;2022-10-16T05:57:36;11.90;;;1.83;;
51660;SDS011;37741;49.748;8.490;2022-10-16T06:00:03;1.92;;;1.23;;
51660;SDS011;37741;49.748;8.490;2022-10-16T06:02:29;1.90;;;1.20;;
51660;SDS011;37741;49.748;8.490;2022-10-16T06:04:55;4.22;;;1.65;;
51660;SDS011;37741;49.748;8.490;2022-10-16T06:07:20;2.20;;;1.13;;
51660;SDS011;37741;49.748;8.490;2022-10-16T06:09:50;3.58;;;1.40;;
51660;SDS011;37741;49.748;8.490;2022-10-16T06:12:17;2.25;;;1.30;;
51660;SDS011;37741;49.748;8.490;2022-10-16T06:14:44;3.13;;;1.80;;
51660;SDS011;37741;49.748;8.490;2022-10-16T06:17:11;4.00;;;1.80;;
51660;SDS011;37741;49.748;8.490;2022-10-16T06:19:38;3.40;;;1.20;;
51660;SDS011;37741;49.748;8.490;2022-10-16T06:22:03;1.77;;;1.13;;
51660;SDS011;37741;49.748;8.490;2022-10-16T06:24:29;4.55;;;1.58;;
51660;SDS011;37741;49.748;8.490;2022-10-16T06:26:55;1.77;;;1.17;;
51660;SDS011;37741;49.748;8.490;2022-10-16T06:29:20;2.38;;;1.40;;
51660;SDS011;37741;49.748;8.490;2022-10-16T06:31:46;2.10;;;1.25;;
51660;SDS011;37741;49.748;8.490;2022-10-16T06:34:11;3.30;;;1.60;;
51660;SDS011;37741;49.748;8.490;2022-10-16T06:36:38;2.40;;;1.40;;
51660;SDS011;37741;49.748;8.490;2022-10-16T06:39:04;1.95;;;1.27;;
51660;SDS011;37741;49.748;8.490;2022-10-16T06:41:32;4.20;;;2.17;;
51660;SDS011;37741;49.748;8.490;2022-10-16T06:43:58;4.57;;;1.58;;
51660;SDS011;37741;49.748;8.490;2022-10-16T06:46:24;2.53;;;1.23;;
51660;SDS011;37741;49.748;8.490;2022-10-16T06:48:51;3.58;;;1.70;;
51660;SDS011;37741;49.748;8.490;2022-10-16T06:51:18;2.55;;;1.33;;
51660;SDS011;37741;49.748;8.490;2022-10-16T06:53:46;3.85;;;1.73;;
51660;SDS011;37741;49.748;8.490;2022-10-16T06:56:29;4.38;;;1.48;;
51660;SDS011;37741;49.748;8.490;2022-10-16T06:58:55;2.75;;;1.60;;
51660;SDS011;37741;49.748;8.490;2022-10-16T07:01:22;2.63;;;1.63;;
51660;SDS011;37741;49.748;8.490;2022-10-16T07:03:48;3.05;;;1.88;;
51660;SDS011;37741;49.748;8.490;2022-10-16T07:06:15;3.40;;;1.88;;
51660;SDS011;37741;49.748;8.490;2022-10-16T07:08:43;4.40;;;2.95;;
51660;SDS011;37741;49.748;8.490;2022-10-16T07:11:11;5.25;;;3.72;;
51660;SDS011;37741;49.748;8.490;2022-10-16T07:13:39;5.85;;;2.65;;
51660;SDS011;37741;49.748;8.490;2022-10-16T07:18:36;5.20;;;2.45;;
51660;SDS011;37741;49.748;8.490;2022-10-16T07:21:07;4.40;;;2.42;;
51660;SDS011;37741;49.748;8.490;2022-10-16T07:23:45;6.82;;;2.15;;
51660;SDS011;37741;49.748;8.490;2022-10-16T07:26:14;3.80;;;2.10;;
51660;SDS011;37741;49.748;8.490;2022-10-16T07:28:40;5.57;;;2.30;;
51660;SDS011;37741;49.748;8.490;2022-10-16T07:31:09;3.97;;;2.60;;
51660;SDS011;37741;49.748;8.490;2022-10-16T07:33:38;4.45;;;2.50;;
51660;SDS011;37741;49.748;8.490;2022-10-16T07:36:04;5.07;;;2.75;;
51660;SDS011;37741;49.748;8.490;2022-10-16T07:38:31;4.15;;;2.42;;
51660;SDS011;37741;49.748;8.490;2022-10-16T07:40:57;4.50;;;2.50;;
51660;SDS011;37741;49.748;8.490;2022-10-16T07:43:24;4.70;;;2.28;;
51660;SDS011;37741;49.748;8.490;2022-10-16T07:45:51;3.38;;;2.30;;
51660;SDS011;37741;49.748;8.490;2022-10-16T07:48:17;5.25;;;2.15;;
51660;SDS011;37741;49.748;8.490;2022-10-16T07:50:44;5.68;;;3.17;;
51660;SDS011;37741;49.748;8.490;2022-10-16T07:53:10;4.68;;;3.00;;
51660;SDS011;37741;49.748;8.490;2022-10-16T07:55:36;5.85;;;4.22;;
51660;SDS011;37741;49.748;8.490;2022-10-16T07:58:02;7.07;;;4.88;;
51660;SDS011;37741;49.748;8.490;2022-10-16T08:00:28;9.32;;;5.47;;
51660;SDS011;37741;49.748;8.490;2022-10-16T08:02:53;8.63;;;5.72;;
51660;SDS011;37741;49.748;8.490;2022-10-16T08:05:19;6.65;;;3.88;;
51660;SDS011;37741;49.748;8.490;2022-10-16T08:07:48;3.70;;;2.78;;
51660;SDS011;37741;49.748;8.490;2022-10-16T08:10:15;4.68;;;2.53;;
51660;SDS011;37741;49.748;8.490;2022-10-16T08:12:43;3.72;;;2.25;;
51660;SDS011;37741;49.748;8.490;2022-10-16T08:15:09;3.65;;;2.75;;
51660;SDS011;37741;49.748;8.490;2022-10-16T08:17:35;3.83;;;2.22;;
51660;SDS011;37741;49.748;8.490;2022-10-16T08:20:00;3.88;;;1.85;;
51660;SDS011;37741;49.748;8.490;2022-10-16T08:22:26;4.93;;;2.10;;
51660;SDS011;37741;49.748;8.490;2022-10-16T08:24:52;3.35;;;2.20;;
51660;SDS011;37741;49.748;8.490;2022-10-16T08:27:18;5.00;;;3.28;;
51660;SDS011;37741;49.748;8.490;2022-10-16T08:29:43;5.68;;;3.38;;
51660;SDS011;37741;49.748;8.490;2022-10-16T08:32:09;5.68;;;3.03;;
51660;SDS011;37741;49.748;8.490;2022-10-16T08:34:34;5.95;;;2.30;;
51660;SDS011;37741;49.748;8.490;2022-10-16T08:37:00;6.55;;;2.95;;
51660;SDS011;37741;49.748;8.490;2022-10-16T08:39:25;3.03;;;2.03;;
51660;SDS011;37741;49.748;8.490;2022-10-16T08:47:31;8.23;;;5.18;;
51660;SDS011;37741;49.748;8.490;2022-10-16T08:50:10;6.30;;;3.40;;
51660;SDS011;37741;49.748;8.490;2022-10-16T08:52:39;6.38;;;3.78;;
51660;SDS011;37741;49.748;8.490;2022-10-16T08:55:14;3.55;;;2.15;;
51660;SDS011;37741;49.748;8.490;2022-10-16T08:57:51;5.65;;;2.42;;
51660;SDS011;37741;49.748;8.490;2022-10-16T09:00:17;4.45;;;2.15;;
51660;SDS011;37741;49.748;8.490;2022-10-16T09:02:45;5.03;;;3.13;;
51660;SDS011;37741;49.748;8.490;2022-10-16T09:13:27;4.05;;;2.38;;
51660;SDS011;37741;49.748;8.490;2022-10-16T09:16:18;4.50;;;2.33;;
51660;SDS011;37741;49.748;8.490;2022-10-16T09:21:40;4.65;;;2.33;;
51660;SDS011;37741;49.748;8.490;2022-10-16T09:24:10;3.47;;;2.10;;
51660;SDS011;37741;49.748;8.490;2022-10-16T09:26:39;4.07;;;2.80;;
51660;SDS011;37741;49.748;8.490;2022-10-16T09:29:04;4.80;;;2.35;;
51660;SDS011;37741;49.748;8.490;2022-10-16T09:31:30;3.80;;;2.40;;
51660;SDS011;37741;49.748;8.490;2022-10-16T09:33:59;4.85;;;2.10;;
51660;SDS011;37741;49.748;8.490;2022-10-16T09:36:30;3.80;;;2.47;;
51660;SDS011;37741;49.748;8.490;2022-10-16T09:39:08;5.55;;;2.40;;
51660;SDS011;37741;49.748;8.490;2022-10-16T09:41:35;3.30;;;2.17;;
51660;SDS011;37741;49.748;8.490;2022-10-16T09:44:04;7.97;;;2.38;;
51660;SDS011;37741;49.748;8.490;2022-10-16T09:47:05;4.07;;;2.40;;
51660;SDS011;37741;49.748;8.490;2022-10-16T09:49:52;4.13;;;2.80;;
51660;SDS011;37741;49.748;8.490;2022-10-16T09:52:31;5.05;;;3.00;;
51660;SDS011;37741;49.748;8.490;2022-10-16T09:54:58;6.45;;;3.15;;
51660;SDS011;37741;49.748;8.490;2022-10-16T09:57:26;6.00;;;2.45;;
51660;SDS011;37741;49.748;8.490;2022-10-16T09:59:52;4.32;;;2.15;;
51660;SDS011;37741;49.748;8.490;2022-10-16T10:02:23;4.72;;;2.35;;
51660;SDS011;37741;49.748;8.490;2022-10-16T10:04:58;5.07;;;2.47;;
51660;SDS011;37741;49.748;8.490;2022-10-16T10:07:25;3.72;;;2.40;;
51660;SDS011;37741;49.748;8.490;2022-10-16T10:09:53;3.10;;;2.13;;
51660;SDS011;37741;49.748;8.490;2022-10-16T10:12:27;3.47;;;2.20;;
51660;SDS011;37741;49.748;8.490;2022-10-16T10:14:57;5.05;;;2.88;;
51660;SDS011;37741;49.748;8.490;2022-10-16T10:17:28;4.32;;;2.90;;
51660;SDS011;37741;49.748;8.490;2022-10-16T10:19:58;4.22;;;2.53;;
51660;SDS011;37741;49.748;8.490;2022-10-16T10:33:08;4.38;;;2.42;;
51660;SDS011;37741;49.748;8.490;2022-10-16T10:35:44;3.75;;;2.20;;
51660;SDS011;37741;49.748;8.490;2022-10-16T10:38:32;3.60;;;2.33;;
51660;SDS011;37741;49.748;8.490;2022-10-16T10:44:14;4.32;;;2.78;;
51660;SDS011;37741;49.748;8.490;2022-10-16T10:52:13;5.00;;;2.70;;
51660;SDS011;37741;49.748;8.490;2022-10-16T10:54:53;4.28;;;2.42;;
51660;SDS011;37741;49.748;8.490;2022-10-16T10:57:36;5.13;;;2.70;;
51660;SDS011;37741;49.748;8.490;2022-10-16T11:05:53;4.05;;;2.42;;
51660;SDS011;37741;49.748;8.490;2022-10-16T11:08:34;6.15;;;2.42;;
51660;SDS011;37741;49.748;8.490;2022-10-16T11:13:48;5.03;;;2.55;;
51660;SDS011;37741;49.748;8.490;2022-10-16T11:19:51;2.95;;;2.25;;
51660;SDS011;37741;49.748;8.490;2022-10-16T11:22:34;3.65;;;2.30;;
51660;SDS011;37741;49.748;8.490;2022-10-16T11:27:48;4.78;;;2.60;;
51660;SDS011;37741;49.748;8.490;2022-10-16T11:38:43;4.03;;;2.30;;
51660;SDS011;37741;49.748;8.490;2022-10-16T11:41:32;2.70;;;2.10;;
51660;SDS011;37741;49.748;8.490;2022-10-16T11:46:40;3.95;;;2.42;;
51660;SDS011;37741;49.748;8.490;2022-10-16T11:49:14;4.13;;;2.50;;
51660;SDS011;37741;49.748;8.490;2022-10-16T11:51:45;3.47;;;2.00;;
51660;SDS011;37741;49.748;8.490;2022-10-16T11:54:21;3.78;;;2.00;;
51660;SDS011;37741;49.748;8.490;2022-10-16T11:57:12;2.97;;;2.20;;
51660;SDS011;37741;49.748;8.490;2022-10-16T12:00:05;3.00;;;1.85;;
51660;SDS011;37741;49.748;8.490;2022-10-16T12:02:51;3.88;;;2.08;;
51660;SDS011;37741;49.748;8.490;2022-10-16T12:08:18;3.47;;;2.10;;
51660;SDS011;37741;49.748;8.490;2022-10-16T12:10:44;3.30;;;1.92;;
51660;SDS011;37741;49.748;8.490;2022-10-16T12:13:31;4.45;;;2.30;;
51660;SDS011;37741;49.748;8.490;2022-10-16T12:18:43;3.10;;;1.98;;
51660;SDS011;37741;49.748;8.490;2022-10-16T12:21:10;8.25;;;2.92;;
51660;SDS011;37741;49.748;8.490;2022-10-16T12:23:47;4.68;;;2.65;;
51660;SDS011;37741;49.748;8.490;2022-10-16T12:26:34;9.38;;;2.50;;
51660;SDS011;37741;49.748;8.490;2022-10-16T12:31:45;3.28;;;2.10;;
51660;SDS011;37741;49.748;8.490;2022-10-16T12:34:23;7.13;;;3.17;;
51660;SDS011;37741;49.748;8.490;2022-10-16T12:39:35;7.18;;;3.33;;
51660;SDS011;37741;49.748;8.490;2022-10-16T12:42:06;15.95;;;3.35;;
51660;SDS011;37741;49.748;8.490;2022-10-16T12:44:48;7.25;;;2.97;;
51660;SDS011;37741;49.748;8.490;2022-10-16T12:47:36;4.82;;;2.97;;
51660;SDS011;37741;49.748;8.490;2022-10-16T12:50:03;4.70;;;2.70;;
51660;SDS011;37741;49.748;8.490;2022-10-16T12:52:56;6.78;;;2.88;;
51660;SDS011;37741;49.748;8.490;2022-10-16T12:55:22;6.28;;;2.80;;
51660;SDS011;37741;49.748;8.490;2022-10-16T13:00:49;5.18;;;2.08;;
51660;SDS011;37741;49.748;8.490;2022-10-16T13:14:44;5.03;;;2.60;;
51660;SDS011;37741;49.748;8.490;2022-10-16T13:28:10;4.00;;;2.55;;
51660;SDS011;37741;49.748;8.490;2022-10-16T13:30:44;6.45;;;2.85;;
51660;SDS011;37741;49.748;8.490;2022-10-16T13:33:19;3.88;;;2.78;;
51660;SDS011;37741;49.748;8.490;2022-10-16T13:36:02;4.03;;;2.53;;
51660;SDS011;37741;49.748;8.490;2022-10-16T13:38:33;3.83;;;2.60;;
51660;SDS011;37741;49.748;8.490;2022-10-16T13:41:01;5.22;;;2.15;;
51660;SDS011;37741;49.748;8.490;2022-10-16T13:43:39;3.90;;;2.22;;
51660;SDS011;37741;49.748;8.490;2022-10-16T13:51:28;4.28;;;2.75;;
51660;SDS011;37741;49.748;8.490;2022-10-16T13:53:56;4.18;;;2.17;;
51660;SDS011;37741;49.748;8.490;2022-10-16T13:56:24;5.72;;;3.35;;
51660;SDS011;37741;49.748;8.490;2022-10-16T13:59:02;5.18;;;2.35;;
51660;SDS011;37741;49.748;8.490;2022-10-16T14:01:31;4.15;;;2.20;;
51660;SDS011;37741;49.748;8.490;2022-10-16T14:04:03;6.30;;;2.10;;
51660;SDS011;37741;49.748;8.490;2022-10-16T14:06:30;4.43;;;1.98;;
51660;SDS011;37741;49.748;8.490;2022-10-16T14:11:44;4.13;;;2.20;;
51660;SDS011;37741;49.748;8.490;2022-10-16T14:14:14;4.40;;;1.88;;
51660;SDS011;37741;49.748;8.490;2022-10-16T14:16:40;3.35;;;1.83;;
51660;SDS011;37741;49.748;8.490;2022-10-16T14:19:17;2.75;;;1.77;;
51660;SDS011;37741;49.748;8.490;2022-10-16T14:21:49;4.85;;;2.22;;
51660;SDS011;37741;49.748;8.490;2022-10-16T14:24:24;4.35;;;2.00;;
51660;SDS011;37741;49.748;8.490;2022-10-16T14:26:52;5.35;;;2.00;;
51660;SDS011;37741;49.748;8.490;2022-10-16T14:29:21;3.78;;;2.30;;
51660;SDS011;37741;49.748;8.490;2022-10-16T14:31:55;3.75;;;2.58;;
51660;SDS011;37741;49.748;8.490;2022-10-16T14:34:33;4.10;;;1.83;;
51660;SDS011;37741;49.748;8.490;2022-10-16T14:37:08;6.80;;;2.30;;
51660;SDS011;37741;49.748;8.490;2022-10-16T14:39:50;9.95;;;2.80;;
51660;SDS011;37741;49.748;8.490;2022-10-16T14:42:17;2.92;;;1.90;;
51660;SDS011;37741;49.748;8.490;2022-10-16T14:44:44;3.78;;;1.88;;
51660;SDS011;37741;49.748;8.490;2022-10-16T14:47:15;3.95;;;1.67;;
51660;SDS011;37741;49.748;8.490;2022-10-16T14:49:47;3.42;;;2.00;;
51660;SDS011;37741;49.748;8.490;2022-10-16T14:52:13;6.97;;;2.00;;
51660;SDS011;37741;49.748;8.490;2022-10-16T14:54:39;2.88;;;1.80;;
51660;SDS011;37741;49.748;8.490;2022-10-16T14:57:05;3.95;;;2.00;;
51660;SDS011;37741;49.748;8.490;2022-10-16T14:59:50;3.47;;;2.05;;
51660;SDS011;37741;49.748;8.490;2022-10-16T15:02:31;15.98;;;2.72;;
51660;SDS011;37741;49.748;8.490;2022-10-16T15:05:12;14.95;;;2.97;;
51660;SDS011;37741;49.748;8.490;2022-10-16T15:07:37;11.57;;;2.55;;
51660;SDS011;37741;49.748;8.490;2022-10-16T15:10:03;4.10;;;2.17;;
51660;SDS011;37741;49.748;8.490;2022-10-16T15:12:29;7.32;;;2.35;;
51660;SDS011;37741;49.748;8.490;2022-10-16T15:14:54;4.50;;;2.58;;
51660;SDS011;37741;49.748;8.490;2022-10-16T15:17:20;7.25;;;2.90;;
51660;SDS011;37741;49.748;8.490;2022-10-16T15:19:46;5.13;;;2.13;;
51660;SDS011;37741;49.748;8.490;2022-10-16T15:22:11;9.77;;;2.45;;
51660;SDS011;37741;49.748;8.490;2022-10-16T15:24:37;7.82;;;2.40;;
51660;SDS011;37741;49.748;8.490;2022-10-16T15:27:03;6.70;;;2.45;;
51660;SDS011;37741;49.748;8.490;2022-10-16T15:29:28;8.48;;;3.08;;
51660;SDS011;37741;49.748;8.490;2022-10-16T15:32:01;6.53;;;2.30;;
51660;SDS011;37741;49.748;8.490;2022-10-16T15:34:27;4.43;;;2.17;;
51660;SDS011;37741;49.748;8.490;2022-10-16T15:36:53;7.93;;;2.55;;
51660;SDS011;37741;49.748;8.490;2022-10-16T15:39:20;6.97;;;2.17;;
51660;SDS011;37741;49.748;8.490;2022-10-16T15:41:46;10.57;;;2.40;;
51660;SDS011;37741;49.748;8.490;2022-10-16T15:44:18;4.93;;;2.40;;
51660;SDS011;37741;49.748;8.490;2022-10-16T15:50:13;3.45;;;1.88;;
51660;SDS011;37741;49.748;8.490;2022-10-16T15:52:40;4.30;;;2.10;;
51660;SDS011;37741;49.748;8.490;2022-10-16T15:55:07;3.15;;;2.03;;
51660;SDS011;37741;49.748;8.490;2022-10-16T16:00:56;6.75;;;1.80;;
51660;SDS011;37741;49.748;8.490;2022-10-16T16:03:25;5.18;;;2.15;;
51660;SDS011;37741;49.748;8.490;2022-10-16T16:05:51;3.53;;;1.83;;
51660;SDS011;37741;49.748;8.490;2022-10-16T16:08:17;3.80;;;2.05;;
51660;SDS011;37741;49.748;8.490;2022-10-16T16:10:43;3.83;;;1.90;;
51660;SDS011;37741;49.748;8.490;2022-10-16T16:13:09;4.35;;;2.45;;
51660;SDS011;37741;49.748;8.490;2022-10-16T16:15:37;4.28;;;2.47;;
51660;SDS011;37741;49.748;8.490;2022-10-16T16:18:05;5.47;;;2.20;;
51660;SDS011;37741;49.748;8.490;2022-10-16T16:20:31;8.15;;;2.08;;
51660;SDS011;37741;49.748;8.490;2022-10-16T16:22:57;6.07;;;2.30;;
51660;SDS011;37741;49.748;8.490;2022-10-16T16:25:22;3.22;;;2.17;;
51660;SDS011;37741;49.748;8.490;2022-10-16T16:27:48;2.67;;;1.63;;
51660;SDS011;37741;49.748;8.490;2022-10-16T16:30:14;3.00;;;1.60;;
51660;SDS011;37741;49.748;8.490;2022-10-16T16:32:39;2.60;;;1.83;;
51660;SDS011;37741;49.748;8.490;2022-10-16T16:35:05;3.30;;;1.75;;
51660;SDS011;37741;49.748;8.490;2022-10-16T16:37:31;8.60;;;2.67;;
51660;SDS011;37741;49.748;8.490;2022-10-16T16:39:56;4.88;;;2.13;;
51660;SDS011;37741;49.748;8.490;2022-10-16T16:42:25;4.53;;;2.20;;
51660;SDS011;37741;49.748;8.490;2022-10-16T16:44:52;3.58;;;2.03;;
51660;SDS011;37741;49.748;8.490;2022-10-16T16:47:17;4.63;;;2.13;;
51660;SDS011;37741;49.748;8.490;2022-10-16T16:49:43;3.75;;;1.95;;
51660;SDS011;37741;49.748;8.490;2022-10-16T16:52:09;5.00;;;2.10;;
51660;SDS011;37741;49.748;8.490;2022-10-16T16:54:34;5.70;;;2.80;;
51660;SDS011;37741;49.748;8.490;2022-10-16T16:57:00;2.65;;;1.67;;
51660;SDS011;37741;49.748;8.490;2022-10-16T16:59:26;2.67;;;1.83;;
51660;SDS011;37741;49.748;8.490;2022-10-16T17:01:52;2.40;;;1.70;;
51660;SDS011;37741;49.748;8.490;2022-10-16T17:04:17;4.00;;;2.10;;
51660;SDS011;37741;49.748;8.490;2022-10-16T17:06:44;3.25;;;1.90;;
51660;SDS011;37741;49.748;8.490;2022-10-16T17:09:16;4.80;;;2.25;;
51660;SDS011;37741;49.748;8.490;2022-10-16T17:11:44;5.10;;;2.65;;